Time;durP1;ratioP1;P1;durP2;ratioP2;P2;SDS_P1;SDS_P2;PMS_P1;PMS_P2;Temp;Humidity;BMP_temperature;BMP_pressure;BME280_temperature;BME280_humidity;BME280_pressure;Samples;Min_cycle;Max_cycle;Signal;HPM_P1;HPM_P2
2021/05/20 00:02:20;;;;;;;10.48;8.23;;;;;;;-145.50;100.00;65435.88;4987238;28;19976;-72
2021/05/20 00:04:48;;;;;;;10.93;8.18;;;;;;;-145.50;100.00;65435.88;4992113;28;20058;-72
2021/05/20 00:07:15;;;;;;;11.48;9.38;;;;;;;-145.50;100.00;65435.88;4994600;28;20104;-73
2021/05/20 00:09:42;;;;;;;12.57;10.07;;;;;;;-145.50;100.00;65435.88;5001624;28;20054;-72
2021/05/20 00:12:09;;;;;;;15.43;10.30;;;;;;;-145.50;100.00;65435.88;4997435;28;20113;-73
2021/05/20 00:14:36;;;;;;;14.02;10.30;;;;;;;-145.50;100.00;65435.88;4997878;28;20081;-73
2021/05/20 00:17:02;;;;;;;15.32;10.80;;;;;;;-145.50;100.00;65435.88;4988006;28;20078;-73
2021/05/20 00:19:28;;;;;;;15.93;12.15;;;;;;;-145.50;100.00;65435.88;4996546;28;20054;-73
2021/05/20 00:21:55;;;;;;;15.98;12.57;;;;;;;-145.50;100.00;65435.88;4996521;28;20112;-73
2021/05/20 00:24:21;;;;;;;15.60;11.90;;;;;;;-145.50;100.00;65435.88;4999924;28;20132;-72
2021/05/20 00:26:48;;;;;;;14.65;12.50;;;;;;;-145.50;100.00;65435.88;5001966;28;20082;-72
2021/05/20 00:29:14;;;;;;;18.00;13.52;;;;;;;-145.50;100.00;65435.88;4993417;28;20042;-73
2021/05/20 00:31:41;;;;;;;14.68;12.40;;;;;;;-145.50;100.00;65435.88;5000211;28;20062;-73
2021/05/20 00:34:07;;;;;;;14.25;11.95;;;;;;;-145.50;100.00;65435.88;4995710;28;20058;-73
2021/05/20 00:36:34;;;;;;;17.25;13.05;;;;;;;-145.50;100.00;65435.88;5005199;28;20057;-73
2021/05/20 00:39:02;;;;;;;15.68;12.40;;;;;;;-145.50;100.00;65435.88;4987413;28;20112;-73
2021/05/20 00:41:29;;;;;;;17.13;12.68;;;;;;;-145.50;100.00;65435.88;4986892;28;20046;-73
2021/05/20 00:43:56;;;;;;;15.30;11.93;;;;;;;-145.50;100.00;65435.88;4996879;28;20119;-73
2021/05/20 00:46:22;;;;;;;14.50;12.05;;;;;;;-145.50;100.00;65435.88;4997506;28;20081;-73
2021/05/20 00:48:49;;;;;;;18.98;13.70;;;;;;;-145.50;100.00;65435.88;4999191;28;20469;-73
2021/05/20 00:51:15;;;;;;;19.65;14.35;;;;;;;-145.50;100.00;65435.88;4993942;28;20092;-72
2021/05/20 00:53:42;;;;;;;19.60;14.10;;;;;;;-145.50;100.00;65435.88;4989644;28;20050;-73
2021/05/20 00:56:10;;;;;;;20.23;13.93;;;;;;;-145.50;100.00;65435.88;4991993;28;20073;-73
2021/05/20 00:58:37;;;;;;;17.38;12.73;;;;;;;-145.50;100.00;65435.88;4994559;28;20103;-73
2021/05/20 01:01:04;;;;;;;16.88;13.23;;;;;;;-145.50;100.00;65435.88;5005644;28;20197;-73
2021/05/20 01:03:32;;;;;;;18.77;13.35;;;;;;;-145.50;100.00;65435.88;4993433;28;20115;-72
2021/05/20 01:05:58;;;;;;;16.88;12.18;;;;;;;-145.50;100.00;65435.88;5000619;28;20058;-73
2021/05/20 01:08:25;;;;;;;16.92;12.90;;;;;;;-145.50;100.00;65435.88;4989814;28;20456;-73
2021/05/20 01:10:52;;;;;;;19.05;13.10;;;;;;;-145.50;100.00;65435.88;5002394;28;20120;-73
2021/05/20 01:13:21;;;;;;;15.15;12.23;;;;;;;-145.50;100.00;65435.88;4989116;28;20053;-73
2021/05/20 01:15:47;;;;;;;;;;;;;;;-145.50;100.00;65435.88;5000687;28;20082;-73
2021/05/20 01:18:14;;;;;;;16.75;12.93;;;;;;;-145.50;100.00;65435.88;4993064;28;19961;-73
2021/05/20 01:20:42;;;;;;;18.25;13.20;;;;;;;-145.50;100.00;65435.88;4990729;28;20144;-73
2021/05/20 01:23:12;;;;;;;;;;;;;;;-145.50;100.00;65435.88;4995534;28;20192;-73
2021/05/20 01:25:40;;;;;;;17.63;12.30;;;;;;;-145.50;100.00;65435.88;5012351;28;20322;-73
2021/05/20 01:28:12;;;;;;;19.63;13.23;;;;;;;-145.50;100.00;65435.88;4996553;28;20137;-73
2021/05/20 01:30:41;;;;;;;20.23;13.90;;;;;;;-145.50;100.00;65435.88;4992962;28;20132;-73
2021/05/20 01:33:08;;;;;;;19.55;13.57;;;;;;;-145.50;100.00;65435.88;4991665;28;20108;-73
2021/05/20 01:35:35;;;;;;;17.10;12.75;;;;;;;-145.50;100.00;65435.88;5000502;28;20053;-73
2021/05/20 01:40:57;;;;;;;19.80;13.85;;;;;;;-145.50;100.00;65435.88;4993782;28;20565;-73
2021/05/20 01:43:24;;;;;;;22.85;16.05;;;;;;;-145.50;100.00;65435.88;4987714;28;20089;-72
2021/05/20 01:45:57;;;;;;;20.50;15.15;;;;;;;-145.50;100.00;65435.88;4989790;28;20085;-73
2021/05/20 01:48:33;;;;;;;22.63;15.75;;;;;;;-145.50;100.00;65435.88;4987349;28;20086;-73
2021/05/20 01:51:04;;;;;;;19.13;14.35;;;;;;;-145.50;100.00;65435.88;5019180;28;20058;-73
2021/05/20 01:53:31;;;;;;;22.42;16.02;;;;;;;-145.50;100.00;65435.88;4993079;28;20132;-73
2021/05/20 01:55:58;;;;;;;24.35;17.52;;;;;;;-145.50;100.00;65435.88;5004011;28;20050;-73
2021/05/20 01:58:25;;;;;;;24.02;18.00;;;;;;;-145.50;100.00;65435.88;4996361;28;20057;-73
2021/05/20 02:00:52;;;;;;;24.35;17.60;;;;;;;-145.50;100.00;65435.88;4990621;28;20127;-73
2021/05/20 02:03:19;;;;;;;23.38;17.17;;;;;;;-145.50;100.00;65435.88;4995407;28;20100;-72
2021/05/20 02:05:46;;;;;;;25.10;16.08;;;;;;;-145.50;100.00;65435.88;4995622;28;20041;-72
2021/05/20 02:08:13;;;;;;;24.92;17.90;;;;;;;-145.50;100.00;65435.88;4996028;28;20136;-72
2021/05/20 02:10:40;;;;;;;24.23;18.10;;;;;;;-145.50;100.00;65435.88;4990494;28;20050;-72
2021/05/20 02:13:06;;;;;;;25.73;17.17;;;;;;;-145.50;100.00;65435.88;4990873;28;20080;-72
2021/05/20 02:15:33;;;;;;;26.95;18.27;;;;;;;-145.50;100.00;65435.88;4995835;28;20137;-72
2021/05/20 02:18:00;;;;;;;25.33;17.48;;;;;;;-145.50;100.00;65435.88;4989592;28;20100;-73
2021/05/20 02:20:26;;;;;;;23.02;17.25;;;;;;;-145.50;100.00;65435.88;5000433;28;20149;-73
2021/05/20 02:22:53;;;;;;;28.05;18.90;;;;;;;-145.50;100.00;65435.88;4988296;28;20145;-73
2021/05/20 02:25:19;;;;;;;26.67;18.88;;;;;;;-145.50;100.00;65435.88;4997638;28;20114;-72
2021/05/20 02:27:46;;;;;;;28.77;20.10;;;;;;;-145.50;100.00;65435.88;4988963;28;20053;-73
2021/05/20 02:30:15;;;;;;;31.43;21.83;;;;;;;-145.50;100.00;65435.88;4995558;28;20057;-73
2021/05/20 02:32:42;;;;;;;29.50;20.52;;;;;;;-145.50;100.00;65435.88;4999553;28;20107;-73
2021/05/20 02:35:09;;;;;;;30.15;20.77;;;;;;;-145.50;100.00;65435.88;4993538;28;20050;-73
2021/05/20 02:37:36;;;;;;;30.50;21.58;;;;;;;-145.50;100.00;65435.88;4996374;28;20046;-73
2021/05/20 02:40:05;;;;;;;29.98;21.92;;;;;;;-145.50;100.00;65435.88;4993274;28;20143;-72
2021/05/20 02:42:32;;;;;;;32.15;21.17;;;;;;;-145.50;100.00;65435.88;4984365;28;20081;-72
2021/05/20 02:44:59;;;;;;;34.30;23.33;;;;;;;-145.50;100.00;65435.88;4990718;28;20461;-72
2021/05/20 02:47:26;;;;;;;37.83;23.63;;;;;;;-145.50;100.00;65435.88;4998109;28;20104;-73
2021/05/20 02:49:52;;;;;;;38.17;23.73;;;;;;;-145.50;100.00;65435.88;5000660;28;20170;-73
2021/05/20 02:52:19;;;;;;;41.45;25.58;;;;;;;-145.50;100.00;65435.88;4983780;28;20054;-73
2021/05/20 02:54:46;;;;;;;44.15;26.35;;;;;;;-145.50;100.00;65435.88;4994701;28;20355;-73
2021/05/20 02:57:12;;;;;;;45.92;27.60;;;;;;;-145.50;100.00;65435.88;4984358;28;20104;-73
2021/05/20 02:59:39;;;;;;;53.40;27.67;;;;;;;-145.50;100.00;65435.88;5001224;28;20046;-73
2021/05/20 03:02:07;;;;;;;78.82;29.35;;;;;;;-145.50;100.00;65435.88;4991825;28;20155;-73
2021/05/20 03:04:35;;;;;;;64.57;30.27;;;;;;;-145.50;100.00;65435.88;5000956;28;20485;-73
2021/05/20 03:07:03;;;;;;;69.78;28.27;;;;;;;-145.50;100.00;65435.88;4999429;28;20057;-73
2021/05/20 03:09:30;;;;;;;52.30;27.67;;;;;;;-145.50;100.00;65435.88;4990713;28;20054;-73
2021/05/20 03:11:59;;;;;;;106.20;29.05;;;;;;;-145.50;100.00;65435.88;4989845;28;20108;-72
2021/05/20 03:14:26;;;;;;;101.88;32.75;;;;;;;-145.50;100.00;65435.88;4987226;28;20608;-73
2021/05/20 03:16:57;;;;;;;72.78;29.73;;;;;;;-145.50;100.00;65435.88;4995521;28;20387;-73
2021/05/20 03:19:24;;;;;;;96.20;27.88;;;;;;;-145.50;100.00;65435.88;4993197;28;20494;-73
2021/05/20 03:21:50;;;;;;;68.15;27.45;;;;;;;-145.50;100.00;65435.88;4989936;28;20081;-72
2021/05/20 03:24:17;;;;;;;70.28;25.60;;;;;;;-145.50;100.00;65435.88;4991057;28;20073;-72
2021/05/20 03:26:43;;;;;;;111.35;29.92;;;;;;;-145.50;100.00;65435.88;4986734;28;20657;-73
2021/05/20 03:29:09;;;;;;;69.25;29.33;;;;;;;-145.50;100.00;65435.88;5000765;28;20509;-72
2021/05/20 03:31:36;;;;;;;150.50;29.15;;;;;;;-145.50;100.00;65435.88;4987201;28;20049;-73
2021/05/20 03:34:03;;;;;;;87.88;27.92;;;;;;;-145.50;100.00;65435.88;4998913;28;20151;-72
2021/05/20 03:36:29;;;;;;;131.00;29.08;;;;;;;-145.50;100.00;65435.88;4980286;28;20982;-73
2021/05/20 03:38:56;;;;;;;116.65;27.73;;;;;;;-145.50;100.00;65435.88;4992960;28;20050;-73
2021/05/20 03:41:22;;;;;;;107.07;29.05;;;;;;;-145.50;100.00;65435.88;4993001;28;20138;-73
2021/05/20 03:43:49;;;;;;;111.72;27.38;;;;;;;-145.50;100.00;65435.88;4990911;28;20089;-73
2021/05/20 03:46:27;;;;;;;150.18;31.65;;;;;;;-145.50;100.00;65435.88;4999641;28;20049;-73
2021/05/20 03:48:53;;;;;;;90.70;28.52;;;;;;;-145.50;100.00;65435.88;4990637;28;20077;-73
2021/05/20 03:51:20;;;;;;;67.32;25.90;;;;;;;-145.50;100.00;65435.88;4993144;28;20050;-73
2021/05/20 03:53:46;;;;;;;68.00;27.42;;;;;;;-145.50;100.00;65435.88;4994808;28;20049;-73
2021/05/20 03:56:13;;;;;;;53.03;26.90;;;;;;;-145.50;100.00;65435.88;4993770;28;20513;-73
2021/05/20 03:58:40;;;;;;;71.47;28.88;;;;;;;-145.50;100.00;65435.88;4997282;28;20081;-73
2021/05/20 04:01:22;;;;;;;54.83;26.80;;;;;;;-145.50;100.00;65435.88;4987821;28;20276;-73
2021/05/20 04:04:09;;;;;;;69.53;26.02;;;;;;;-145.50;100.00;65435.88;4990854;28;20085;-72
2021/05/20 04:06:50;;;;;;;62.70;27.15;;;;;;;-145.50;100.00;65435.88;4980724;28;20425;-72
2021/05/20 04:09:33;;;;;;;99.43;28.33;;;;;;;-145.50;100.00;65435.88;4998326;28;20532;-72
2021/05/20 04:12:11;;;;;;;81.10;27.15;;;;;;;-145.50;100.00;65435.88;4987581;28;20058;-73
2021/05/20 04:14:58;;;;;;;65.47;26.98;;;;;;;-145.50;100.00;65435.88;4992613;28;20490;-73
2021/05/20 04:17:45;;;;;;;54.20;27.10;;;;;;;-145.50;100.00;65435.88;4983847;28;20057;-72
2021/05/20 04:20:33;;;;;;;55.70;25.30;;;;;;;-145.50;100.00;65435.88;4993235;28;20473;-73
2021/05/20 04:23:20;;;;;;;58.05;26.35;;;;;;;-145.50;100.00;65435.88;4986530;28;20524;-72
2021/05/20 04:26:08;;;;;;;61.05;27.13;;;;;;;-145.50;100.00;65435.88;4998515;28;20057;-72
2021/05/20 04:28:55;;;;;;;53.70;26.80;;;;;;;-145.50;100.00;65435.88;4992310;28;20077;-73
2021/05/20 04:31:42;;;;;;;47.15;25.05;;;;;;;-145.50;100.00;65435.88;4987501;28;20267;-72
2021/05/20 04:34:29;;;;;;;58.47;26.17;;;;;;;-145.50;100.00;65435.88;4987155;28;20089;-72
2021/05/20 04:37:17;;;;;;;49.40;26.35;;;;;;;-145.50;100.00;65435.88;4993838;28;20169;-73
2021/05/20 04:40:04;;;;;;;47.85;25.13;;;;;;;-145.50;100.00;65435.88;5008935;28;20477;-73
2021/05/20 04:42:46;;;;;;;45.88;24.38;;;;;;;-145.50;100.00;65435.88;4993450;28;20053;-73
2021/05/20 04:45:13;;;;;;;42.70;23.98;;;;;;;-145.50;100.00;65435.88;4988422;28;20111;-73
2021/05/20 04:47:39;;;;;;;45.47;24.92;;;;;;;-145.50;100.00;65435.88;4986822;28;20057;-73
2021/05/20 04:50:06;;;;;;;42.83;23.63;;;;;;;-145.50;100.00;65435.88;5001124;28;20081;-73
2021/05/20 04:52:33;;;;;;;46.47;25.02;;;;;;;-145.50;100.00;65435.88;4991355;28;20115;-73
2021/05/20 04:54:59;;;;;;;46.47;24.60;;;;;;;-145.50;100.00;65435.88;4998769;28;20058;-73
2021/05/20 04:57:26;;;;;;;55.83;26.52;;;;;;;-145.50;100.00;65435.88;4989263;28;20054;-73
2021/05/20 05:00:07;;;;;;;47.83;25.15;;;;;;;-145.50;100.00;65435.88;4997672;28;20053;-73
2021/05/20 05:02:54;;;;;;;50.83;27.25;;;;;;;-145.50;100.00;65435.88;4989462;28;20140;-73
2021/05/20 05:05:42;;;;;;;48.33;25.40;;;;;;;-145.50;100.00;65435.88;4998382;28;20046;-73
2021/05/20 05:08:29;;;;;;;43.53;24.77;;;;;;;-145.50;100.00;65435.88;5000698;28;20143;-73
2021/05/20 05:11:16;;;;;;;44.63;25.00;;;;;;;-145.50;100.00;65435.88;4994316;28;20866;-73
2021/05/20 05:14:03;;;;;;;43.83;23.45;;;;;;;-145.50;100.00;65435.88;4998162;28;20506;-73
2021/05/20 05:16:50;;;;;;;51.67;26.20;;;;;;;-145.50;100.00;65435.88;4987332;28;20450;-73
2021/05/20 05:19:37;;;;;;;49.53;25.90;;;;;;;-145.50;100.00;65435.88;4996930;28;20085;-73
2021/05/20 05:22:24;;;;;;;45.75;24.48;;;;;;;-145.50;100.00;65435.88;4994266;28;20157;-73
2021/05/20 05:25:11;;;;;;;43.33;24.67;;;;;;;-145.50;100.00;65435.88;5001636;28;20112;-73
2021/05/20 05:27:58;;;;;;;45.28;26.50;;;;;;;-145.50;100.00;65435.88;4988848;28;20120;-73
2021/05/20 05:30:46;;;;;;;45.05;24.85;;;;;;;-145.50;100.00;65435.88;4995802;28;20576;-73
2021/05/20 05:33:33;;;;;;;43.10;25.43;;;;;;;-145.50;100.00;65435.88;4994611;28;20588;-73
2021/05/20 05:36:21;;;;;;;42.63;25.35;;;;;;;-145.50;100.00;65435.88;4991807;28;20428;-73
2021/05/20 05:39:08;;;;;;;45.58;25.15;;;;;;;-145.50;100.00;65435.88;4989989;28;20403;-73
2021/05/20 05:41:55;;;;;;;42.15;25.35;;;;;;;-145.50;100.00;65435.88;4989451;28;20564;-73
2021/05/20 05:44:42;;;;;;;41.80;23.02;;;;;;;-145.50;100.00;65435.88;4986658;28;20050;-73
2021/05/20 05:47:29;;;;;;;42.10;24.50;;;;;;;-145.50;100.00;65435.88;4995672;28;20111;-73
2021/05/20 05:50:16;;;;;;;38.63;22.85;;;;;;;-145.50;100.00;65435.88;4992200;28;20561;-73
2021/05/20 05:53:06;;;;;;;36.78;22.63;;;;;;;-145.50;100.00;65435.88;4998125;28;20158;-73
2021/05/20 05:55:53;;;;;;;36.38;21.70;;;;;;;-145.50;100.00;65435.88;4984474;28;20104;-74
2021/05/20 05:58:40;;;;;;;40.20;23.55;;;;;;;-145.50;100.00;65435.88;4995871;28;20085;-73
2021/05/20 06:01:27;;;;;;;44.33;24.42;;;;;;;-145.50;100.00;65435.88;4982969;28;20184;-73
2021/05/20 06:04:15;;;;;;;40.92;23.95;;;;;;;-145.50;100.00;65435.88;5000457;28;20049;-73
2021/05/20 06:07:05;;;;;;;48.00;24.42;;;;;;;-145.50;100.00;65435.88;4990216;28;20050;-73
2021/05/20 06:09:53;;;;;;;46.97;26.45;;;;;;;-145.50;100.00;65435.88;4997278;28;20141;-73
2021/05/20 06:12:40;;;;;;;46.97;25.33;;;;;;;-145.50;100.00;65435.88;4989370;28;20146;-73
2021/05/20 06:15:28;;;;;;;44.13;24.80;;;;;;;-145.50;100.00;65435.88;4995013;28;20077;-73
2021/05/20 06:18:15;;;;;;;45.75;24.17;;;;;;;-145.50;100.00;65435.88;4992732;28;20488;-73
2021/05/20 06:21:03;;;;;;;49.78;23.77;;;;;;;-145.50;100.00;65435.88;4996224;28;20097;-73
2021/05/20 06:23:50;;;;;;;50.22;24.17;;;;;;;-145.50;100.00;65435.88;4987813;28;20922;-73
2021/05/20 06:26:37;;;;;;;52.97;25.05;;;;;;;-145.50;100.00;65435.88;4988759;28;20104;-73
2021/05/20 06:29:25;;;;;;;50.55;25.40;;;;;;;-145.50;100.00;65435.88;4990413;28;20058;-73
2021/05/20 06:32:12;;;;;;;52.67;24.85;;;;;;;-145.50;100.00;65435.88;4997985;28;20494;-73
2021/05/20 06:34:59;;;;;;;53.92;25.35;;;;;;;-145.50;100.00;65435.88;4995071;28;20093;-73
2021/05/20 06:37:47;;;;;;;61.63;26.40;;;;;;;-145.50;100.00;65435.88;4993907;28;20123;-73
2021/05/20 06:40:23;;;;;;;61.08;27.67;;;;;;;-145.50;100.00;65435.88;4987316;28;20100;-73
2021/05/20 06:43:10;;;;;;;60.10;26.70;;;;;;;-145.50;100.00;65435.88;4994651;28;20049;-73
2021/05/20 06:45:57;;;;;;;62.33;29.02;;;;;;;-145.50;100.00;65435.88;4993420;28;20050;-73
2021/05/20 06:48:45;;;;;;;59.33;27.40;;;;;;;-145.50;100.00;65435.88;4990236;28;20097;-73
2021/05/20 06:51:32;;;;;;;65.25;30.00;;;;;;;-145.50;100.00;65435.88;4989031;28;20549;-73
2021/05/20 06:53:58;;;;;;;66.38;30.92;;;;;;;-145.50;100.00;65435.88;4981447;28;20183;-73
2021/05/20 06:56:27;;;;;;;70.55;31.80;;;;;;;-145.50;100.00;65435.88;4993042;28;20113;-73
2021/05/20 07:02:19;;;;;;;63.80;30.92;;;;;;;-145.50;100.00;65435.88;4998386;28;20496;-73
2021/05/20 07:05:06;;;;;;;70.60;32.83;;;;;;;-145.50;100.00;65435.88;4993078;28;20070;-73
2021/05/20 07:07:54;;;;;;;69.50;33.10;;;;;;;-145.50;100.00;65435.88;4997575;28;20108;-73
2021/05/20 07:10:41;;;;;;;79.65;35.22;;;;;;;-145.50;100.00;65435.88;4985290;28;20049;-73
2021/05/20 07:13:28;;;;;;;79.10;34.60;;;;;;;-145.50;100.00;65435.88;4999665;28;20096;-73
2021/05/20 07:16:15;;;;;;;75.75;34.90;;;;;;;-145.50;100.00;65435.88;4986747;28;20085;-73
2021/05/20 07:18:41;;;;;;;70.60;33.67;;;;;;;-145.50;100.00;65435.88;4995918;28;20092;-73
2021/05/20 07:21:08;;;;;;;75.05;35.17;;;;;;;-145.50;100.00;65435.88;4984288;28;20081;-73
2021/05/20 07:23:34;;;;;;;76.00;34.35;;;;;;;-145.50;100.00;65435.88;4998608;28;20531;-73
2021/05/20 07:26:02;;;;;;;67.43;35.88;;;;;;;-145.50;100.00;65435.88;4997319;28;20092;-73
2021/05/20 07:28:28;;;;;;;73.40;36.67;;;;;;;-145.50;100.00;65435.88;4995083;28;20064;-73
2021/05/20 07:30:55;;;;;;;73.93;38.00;;;;;;;-145.50;100.00;65435.88;4996570;28;20101;-73
2021/05/20 07:33:23;;;;;;;74.20;36.78;;;;;;;-145.50;100.00;65435.88;4988460;28;20065;-73
2021/05/20 07:35:49;;;;;;;71.57;37.55;;;;;;;-145.50;100.00;65435.88;4990755;28;20104;-73
2021/05/20 07:38:16;;;;;;;72.18;37.90;;;;;;;-145.50;100.00;65435.88;4996243;28;20058;-73
2021/05/20 07:40:42;;;;;;;78.03;41.90;;;;;;;-145.50;100.00;65435.88;4997070;28;20054;-73
2021/05/20 07:43:09;;;;;;;78.53;43.13;;;;;;;-145.50;100.00;65435.88;4999393;28;20057;-73
2021/05/20 07:45:35;;;;;;;81.78;42.97;;;;;;;-145.50;100.00;65435.88;4986238;28;20053;-73
2021/05/20 07:48:02;;;;;;;72.22;41.40;;;;;;;-145.50;100.00;65435.88;4991088;28;20096;-73
2021/05/20 07:50:29;;;;;;;69.78;37.47;;;;;;;-145.50;100.00;65435.88;4986293;28;20136;-73
2021/05/20 07:52:55;;;;;;;69.93;38.85;;;;;;;-145.50;100.00;65435.88;4998158;28;20184;-73
2021/05/20 07:55:22;;;;;;;69.53;40.30;;;;;;;-145.50;100.00;65435.88;4988126;28;20057;-73
2021/05/20 07:57:49;;;;;;;76.25;40.58;;;;;;;-145.50;100.00;65435.88;4999952;28;20079;-73
2021/05/20 08:00:16;;;;;;;73.65;37.50;;;;;;;-145.50;100.00;65435.88;4988203;28;20137;-73
2021/05/20 08:05:52;;;;;;;74.22;37.58;;;;;;;-145.50;100.00;65435.88;4995386;28;20136;-73
2021/05/20 08:08:19;;;;;;;68.53;35.33;;;;;;;-145.50;100.00;65435.88;4981160;28;20058;-72
2021/05/20 08:10:56;;;;;;;68.22;34.22;;;;;;;-145.50;100.00;65435.88;4992876;28;20116;-73
2021/05/20 08:13:23;;;;;;;70.55;35.80;;;;;;;-145.50;100.00;65435.88;4985871;28;20549;-73
2021/05/20 08:15:49;;;;;;;70.15;34.03;;;;;;;-145.50;100.00;65435.88;4990371;28;20357;-73
2021/05/20 08:18:16;;;;;;;66.65;35.17;;;;;;;-145.50;100.00;65435.88;5000905;28;20119;-73
2021/05/20 08:20:43;;;;;;;69.18;34.17;;;;;;;-145.50;100.00;65435.88;4991563;28;20064;-73
2021/05/20 08:23:10;;;;;;;66.47;34.75;;;;;;;-145.50;100.00;65435.88;4997091;28;20072;-73
2021/05/20 08:25:36;;;;;;;62.45;34.45;;;;;;;-145.50;100.00;65435.88;4990846;28;20089;-73
2021/05/20 08:28:03;;;;;;;67.10;35.22;;;;;;;-145.50;100.00;65435.88;4995876;28;20128;-73
2021/05/20 08:30:30;;;;;;;69.50;34.30;;;;;;;-145.50;100.00;65435.88;4984005;28;20081;-73
2021/05/20 08:32:56;;;;;;;57.25;31.50;;;;;;;-145.50;100.00;65435.88;4990253;28;20105;-73
2021/05/20 08:35:24;;;;;;;59.17;32.67;;;;;;;-145.50;100.00;65435.88;4998268;28;20049;-73
2021/05/20 08:37:51;;;;;;;59.22;31.25;;;;;;;-145.50;100.00;65435.88;4995008;28;20053;-73
2021/05/20 08:40:19;;;;;;;;;;;;;;;-145.50;100.00;65435.88;4997769;28;20053;-73
2021/05/20 08:43:06;;;;;;;53.50;29.20;;;;;;;-145.50;100.00;65435.88;4987701;28;20500;-73
2021/05/20 08:45:53;;;;;;;53.50;29.50;;;;;;;-145.50;100.00;65435.88;5000157;28;20621;-74
2021/05/20 08:48:41;;;;;;;46.15;26.25;;;;;;;-145.50;100.00;65435.88;4993626;28;20050;-74
2021/05/20 08:51:28;;;;;;;51.78;28.77;;;;;;;-145.50;100.00;65435.88;5000590;28;20078;-73
2021/05/20 08:54:16;;;;;;;48.15;26.90;;;;;;;-145.50;100.00;65435.88;4989913;28;20081;-74
2021/05/20 08:57:04;;;;;;;49.58;29.67;;;;;;;-145.50;100.00;65435.88;4995297;28;20497;-73
2021/05/20 08:59:52;;;;;;;49.28;29.25;;;;;;;-145.50;100.00;65435.88;4985975;28;20149;-73
2021/05/20 09:02:44;;;;;;;48.03;30.27;;;;;;;-145.50;100.00;65435.88;5001628;28;20132;-73
2021/05/20 09:05:31;;;;;;;47.33;29.55;;;;;;;-145.50;100.00;65435.88;4987321;28;20081;-73
2021/05/20 09:08:22;;;;;;;41.95;27.38;;;;;;;-145.50;100.00;65435.88;4990457;28;20557;-73
2021/05/20 09:11:22;;;;;;;40.53;25.40;;;;;;;-145.50;100.00;65435.88;4991231;28;20135;-73
2021/05/20 09:14:09;;;;;;;41.63;26.10;;;;;;;-145.50;100.00;65435.88;4995675;28;20147;-73
2021/05/20 09:17:15;;;;;;;39.28;25.23;;;;;;;-145.50;100.00;65435.88;4989145;28;20547;-73
2021/05/20 09:20:03;;;;;;;41.42;26.40;;;;;;;-145.50;100.00;65435.88;4995914;28;20545;-73
2021/05/20 09:23:06;;;;;;;45.67;27.90;;;;;;;-145.50;100.00;65435.88;4990468;28;20060;-73
2021/05/20 09:26:07;;;;;;;43.80;26.90;;;;;;;-145.50;100.00;65435.88;4992637;28;20107;-73
2021/05/20 09:29:06;;;;;;;43.75;26.60;;;;;;;-145.50;100.00;65435.88;4990958;28;20498;-73
2021/05/20 09:32:04;;;;;;;40.67;26.40;;;;;;;-145.50;100.00;65435.88;4995283;28;20546;-73
2021/05/20 09:34:59;;;;;;;;;;;;;;;-145.50;100.00;65435.88;4986991;28;20054;-73
2021/05/20 09:37:46;;;;;;;36.33;22.98;;;;;;;-145.50;100.00;65435.88;4987577;28;19925;-73
2021/05/20 09:40:38;;;;;;;35.15;23.25;;;;;;;-145.50;100.00;65435.88;4986151;28;20160;-73
2021/05/20 09:43:42;;;;;;;27.60;20.42;;;;;;;-145.50;100.00;65435.88;4996838;28;20538;-73
2021/05/20 09:46:42;;;;;;;27.30;19.63;;;;;;;-145.50;100.00;65435.88;4997773;28;20085;-73
2021/05/20 09:49:30;;;;;;;28.13;20.25;;;;;;;-145.50;100.00;65435.88;4994135;28;20253;-73
2021/05/20 09:52:36;;;;;;;27.98;19.35;;;;;;;-145.50;100.00;65435.88;4988758;28;20148;-73
2021/05/20 09:55:35;;;;;;;29.33;19.58;;;;;;;-145.50;100.00;65435.88;4999359;28;20179;-73
2021/05/20 09:58:31;;;;;;;29.35;19.60;;;;;;;-145.50;100.00;65435.88;4994177;28;20054;-73
2021/05/20 10:01:19;;;;;;;28.85;21.42;;;;;;;-145.50;100.00;65435.88;5003924;28;20161;-73
2021/05/20 10:04:29;;;;;;;25.38;19.23;;;;;;;-145.50;100.00;65435.88;4993295;28;20104;-73
2021/05/20 10:07:25;;;;;;;28.10;19.15;;;;;;;-145.50;100.00;65435.88;4987696;28;20054;-74
2021/05/20 10:10:13;;;;;;;27.13;19.10;;;;;;;-145.50;100.00;65435.88;4997473;28;20050;-73
2021/05/20 10:13:03;;;;;;;24.15;18.77;;;;;;;-145.50;100.00;65435.88;4992234;28;21692;-73
2021/05/20 10:15:52;;;;;;;26.08;19.83;;;;;;;-145.50;100.00;65435.88;4997475;28;20057;-73
2021/05/20 10:18:40;;;;;;;27.40;19.08;;;;;;;-145.50;100.00;65435.88;4996376;28;20093;-73
2021/05/20 10:21:29;;;;;;;25.20;17.98;;;;;;;-145.50;100.00;65435.88;4985189;28;20085;-73
2021/05/20 10:24:16;;;;;;;25.65;18.88;;;;;;;-145.50;100.00;65435.88;4997046;28;20100;-73
2021/05/20 10:27:04;;;;;;;24.35;18.67;;;;;;;-145.50;100.00;65435.88;4989927;28;20094;-73
2021/05/20 10:29:51;;;;;;;25.95;18.90;;;;;;;-145.50;100.00;65435.88;4997632;28;20525;-73
2021/05/20 10:32:40;;;;;;;26.25;19.65;;;;;;;-145.50;100.00;65435.88;4983512;28;20074;-73
2021/05/20 10:35:39;;;;;;;25.80;19.67;;;;;;;-145.50;100.00;65435.88;4993481;28;20081;-74
2021/05/20 10:38:28;;;;;;;24.23;18.27;;;;;;;-145.50;100.00;65435.88;4985032;28;20077;-73
2021/05/20 10:41:29;;;;;;;23.30;17.48;;;;;;;-145.50;100.00;65435.88;5001558;28;20065;-74
2021/05/20 10:44:23;;;;;;;27.90;19.48;;;;;;;-145.50;100.00;65435.88;4986096;28;20961;-73
2021/05/20 10:47:19;;;;;;;25.38;18.73;;;;;;;-145.50;100.00;65435.88;4997971;28;20076;-73
2021/05/20 10:50:06;;;;;;;23.13;18.27;;;;;;;-145.50;100.00;65435.88;4988749;28;20221;-74
2021/05/20 10:52:56;;;;;;;27.15;19.63;;;;;;;-145.50;100.00;65435.88;4993957;28;20478;-73
2021/05/20 10:55:56;;;;;;;21.40;17.85;;;;;;;-145.50;100.00;65435.88;4992959;28;20148;-73
2021/05/20 10:58:53;;;;;;;24.15;19.10;;;;;;;-145.50;100.00;65435.88;4996887;28;20116;-73
2021/05/20 11:01:40;;;;;;;27.60;20.52;;;;;;;-145.50;100.00;65435.88;4984138;28;20119;-73
2021/05/20 11:04:35;;;;;;;30.05;23.05;;;;;;;-145.50;100.00;65435.88;4995918;28;20547;-73
2021/05/20 11:07:30;;;;;;;29.38;22.05;;;;;;;-145.50;100.00;65435.88;4988679;28;20085;-74
2021/05/20 11:10:34;;;;;;;30.58;22.38;;;;;;;-145.50;100.00;65435.88;4999307;28;20478;-74
2021/05/20 11:13:38;;;;;;;27.25;21.70;;;;;;;-145.50;100.00;65435.88;4984106;28;20451;-73
2021/05/20 11:16:36;;;;;;;29.63;22.73;;;;;;;-145.50;100.00;65435.88;4992774;28;20132;-73
2021/05/20 11:19:35;;;;;;;30.88;23.02;;;;;;;-145.50;100.00;65435.88;4987148;28;20057;-73
2021/05/20 11:22:22;;;;;;;31.50;23.45;;;;;;;-145.50;100.00;65435.88;4995840;28;20050;-73
2021/05/20 11:25:29;;;;;;;28.92;21.85;;;;;;;-145.50;100.00;65435.88;4988364;28;20057;-73
2021/05/20 11:28:17;;;;;;;35.70;24.85;;;;;;;-145.50;100.00;65435.88;4991760;28;20096;-73
2021/05/20 11:31:04;;;;;;;39.30;28.10;;;;;;;-145.50;100.00;65435.88;4988291;28;20104;-73
2021/05/20 11:33:59;;;;;;;36.58;27.35;;;;;;;-145.50;100.00;65435.88;4995238;28;20077;-73
2021/05/20 11:37:03;;;;;;;44.17;29.08;;;;;;;-145.50;100.00;65435.88;4981041;28;20517;-74
2021/05/20 11:39:50;;;;;;;42.70;29.70;;;;;;;-145.50;100.00;65435.88;4996061;28;20050;-73
2021/05/20 11:42:45;;;;;;;40.95;29.60;;;;;;;-145.50;100.00;65435.88;4984578;28;20105;-73
2021/05/20 11:45:42;;;;;;;38.65;25.65;;;;;;;-145.50;100.00;65435.88;4996209;28;20089;-72
2021/05/20 11:48:36;;;;;;;40.42;27.40;;;;;;;-145.50;100.00;65435.88;4991629;28;20049;-74
2021/05/20 11:51:44;;;;;;;40.70;27.33;;;;;;;-145.50;100.00;65435.88;4999167;28;20124;-72
2021/05/20 11:54:32;;;;;;;;;;;;;;;-145.50;100.00;65435.88;4999620;28;20138;-73